Time;durP1;ratioP1;P1;durP2;ratioP2;P2;SDS_P1;SDS_P2;PMS_P1;PMS_P2;Temp;Humidity;BMP_temperature;BMP_pressure;BME280_temperature;BME280_humidity;BME280_pressure;Samples;Min_cycle;Max_cycle;Signal;HPM_P1;HPM_P2
2022/08/05 04:33:37;;;;;;;4.72;2.60;;;21.30;91.70;;;;;;6176160;22;20032;-88
2022/08/05 04:36:13;;;;;;;;;;;21.20;91.80;;;;;;6143939;23;20012;-91
2022/08/05 04:38:43;;;;;;;4.50;2.08;;;21.20;91.90;;;;;;6189021;23;19908;-90
2022/08/05 04:41:12;;;;;;;4.18;2.05;;;21.00;92.00;;;;;;6194175;23;20064;-88
2022/08/05 04:43:38;;;;;;;6.50;2.20;;;21.00;92.20;;;;;;6186972;23;20005;-91
2022/08/05 04:46:04;;;;;;;4.82;2.20;;;21.10;92.30;;;;;;6185385;23;20059;-87
2022/08/05 04:48:30;;;;;;;4.40;2.25;;;21.10;92.30;;;;;;6160916;23;20006;-89
2022/08/05 04:50:58;;;;;;;5.85;2.53;;;21.10;92.30;;;;;;6183608;23;20009;-88
2022/08/05 04:53:24;;;;;;;5.90;2.30;;;21.10;92.30;;;;;;6184837;23;20005;-90
2022/08/05 04:55:52;;;;;;;5.55;2.15;;;21.10;92.30;;;;;;6183745;23;20005;-88
2022/08/05 04:58:20;;;;;;;4.97;2.38;;;21.20;92.20;;;;;;6184670;23;20001;-88
2022/08/05 05:00:46;;;;;;;6.05;2.60;;;21.20;92.20;;;;;;6182636;23;20375;-88
2022/08/05 05:03:12;;;;;;;6.82;2.30;;;21.20;92.20;;;;;;6183896;23;20036;-90
2022/08/05 05:05:40;;;;;;;4.97;2.65;;;21.20;92.30;;;;;;6184802;23;20095;-90
2022/08/05 05:08:08;;;;;;;4.50;2.15;;;21.10;92.30;;;;;;6184223;23;20403;-88
2022/08/05 05:10:42;;;;;;;5.00;2.42;;;21.10;92.40;;;;;;6188318;23;20001;-88
2022/08/05 05:13:09;;;;;;;4.53;2.05;;;21.10;92.70;;;;;;6182783;23;20084;-88
2022/08/05 05:15:35;;;;;;;8.90;2.50;;;21.10;92.40;;;;;;6183788;23;20032;-88
2022/08/05 05:18:01;;;;;;;3.92;2.03;;;21.10;92.40;;;;;;6182576;23;20207;-89
2022/08/05 05:20:27;;;;;;;5.75;2.38;;;21.10;92.40;;;;;;6185249;23;20001;-88
2022/08/05 05:22:53;;;;;;;6.05;2.60;;;21.10;92.50;;;;;;6183799;23;20490;-88
2022/08/05 05:25:18;;;;;;;5.38;2.20;;;21.10;92.40;;;;;;6184745;23;20001;-89
2022/08/05 05:27:47;;;;;;;5.38;2.40;;;21.00;92.40;;;;;;6184087;23;19997;-89
2022/08/05 05:30:13;;;;;;;5.70;2.60;;;21.00;92.60;;;;;;6182854;23;20009;-89
2022/08/05 05:32:39;;;;;;;6.88;2.10;;;21.10;92.60;;;;;;6183647;23;20009;-89
2022/08/05 05:35:08;;;;;;;5.93;2.30;;;20.90;92.50;;;;;;6184143;23;20013;-87
2022/08/05 05:37:56;;;;;;;6.05;2.33;;;20.90;92.70;;;;;;6159707;23;20024;-90
2022/08/05 05:40:37;;;;;;;5.82;2.38;;;20.90;92.70;;;;;;6187550;23;19998;-92
2022/08/05 05:43:03;;;;;;;5.43;1.90;;;20.90;92.70;;;;;;6187447;23;20005;-90
2022/08/05 05:45:41;;;;;;;5.80;2.10;;;21.00;92.70;;;;;;6188090;23;20005;-91
2022/08/05 05:48:30;;;;;;;5.35;2.03;;;21.10;92.70;;;;;;6187039;23;20083;-91
2022/08/05 05:50:58;;;;;;;5.35;2.15;;;21.10;92.60;;;;;;6187153;23;20016;-91
2022/08/05 05:53:30;;;;;;;4.38;2.28;;;21.10;92.50;;;;;;6187427;23;20056;-91
2022/08/05 05:55:56;;;;;;;5.53;2.30;;;21.10;92.50;;;;;;6188093;23;20371;-92
2022/08/05 05:58:25;;;;;;;6.40;2.65;;;21.10;92.50;;;;;;6187393;23;20051;-88
2022/08/05 06:00:54;;;;;;;5.32;2.22;;;21.00;92.40;;;;;;6187731;23;20027;-90
2022/08/05 06:04:25;;;;;;;;;;;;;;;;;;;;;
2022/08/05 16:33:06;;;;;;;2.47;0.70;;;23.60;59.30;;;;;;6196124;22;1350853;-90
2022/08/05 16:35:35;;;;;;;2.38;0.80;;;23.60;59.70;;;;;;6221604;23;20426;-88
2022/08/05 16:38:03;;;;;;;2.38;0.77;;;23.50;60.00;;;;;;6222965;23;20000;-89
2022/08/05 16:40:28;;;;;;;2.85;0.50;;;23.40;60.40;;;;;;6241770;22;19984;-91
2022/08/05 16:42:57;;;;;;;1.63;0.70;;;23.40;60.70;;;;;;6240174;22;19991;-92
2022/08/05 16:49:01;;;;;;;1.38;0.63;;;23.20;61.40;;;;;;6177908;23;20004;-88
2022/08/05 16:51:29;;;;;;;1.75;0.60;;;23.20;61.80;;;;;;6242551;23;20050;-86
2022/08/05 16:53:55;;;;;;;2.33;0.43;;;23.10;61.60;;;;;;6222671;23;20031;-88
2022/08/05 16:56:34;;;;;;;3.72;0.60;;;23.00;61.80;;;;;;6221982;23;20000;-89
2022/08/05 16:59:13;;;;;;;2.28;0.47;;;22.90;62.20;;;;;;6221549;23;20354;-86
2022/08/05 17:01:41;;;;;;;1.20;0.50;;;22.90;62.10;;;;;;6220559;23;20078;-87
2022/08/05 17:04:07;;;;;;;2.67;0.73;;;22.80;61.90;;;;;;6194728;23;20419;-88
2022/08/05 17:06:32;;;;;;;2.50;0.75;;;22.70;61.50;;;;;;6219695;23;20011;-90
2022/08/05 17:09:01;;;;;;;2.67;0.55;;;22.80;61.90;;;;;;6218419;23;20000;-88
2022/08/05 17:11:30;;;;;;;1.42;0.40;;;22.80;62.00;;;;;;6216450;23;20054;-88
2022/08/05 17:13:58;;;;;;;5.22;0.70;;;22.80;61.80;;;;;;6219677;23;20000;-88
2022/08/05 17:16:34;;;;;;;;;;;;;;;;;;;;;
2022/08/05 17:19:13;;;;;;;2.22;0.60;;;22.80;61.30;;;;;;6221625;23;20091;-89
2022/08/05 17:21:41;;;;;;;1.75;0.55;;;22.80;60.90;;;;;;6218224;23;20038;-88
2022/08/05 17:24:08;;;;;;;0.60;0.50;;;22.80;60.70;;;;;;6215722;23;20042;-91
2022/08/05 17:26:37;;;;;;;1.60;0.30;;;22.70;59.90;;;;;;6216988;23;20027;-87
2022/08/05 17:29:05;;;;;;;2.33;0.40;;;22.60;60.40;;;;;;6220028;23;20011;-87
2022/08/05 17:31:33;;;;;;;1.85;0.50;;;22.50;60.90;;;;;;6242600;23;20011;-87
2022/08/05 17:34:01;;;;;;;3.45;0.80;;;22.50;61.30;;;;;;6191662;23;20027;-88
2022/08/05 17:36:27;;;;;;;2.33;0.73;;;22.50;61.30;;;;;;6216561;23;20035;-85
2022/08/05 17:38:53;;;;;;;2.15;0.60;;;22.50;61.60;;;;;;6189024;23;20015;-85
2022/08/05 17:41:20;;;;;;;1.95;0.55;;;22.50;61.60;;;;;;6189574;23;20008;-86
2022/08/05 17:43:46;;;;;;;1.65;0.50;;;22.40;61.90;;;;;;6219642;23;20066;-86
2022/08/05 17:46:11;;;;;;;1.45;0.65;;;22.50;62.00;;;;;;6219660;23;20004;-86
2022/08/05 17:48:37;;;;;;;4.32;0.88;;;22.40;62.00;;;;;;6216625;23;20007;-85
2022/08/05 17:51:03;;;;;;;1.88;0.65;;;22.40;62.10;;;;;;6219269;23;20001;-84
2022/08/05 17:53:28;;;;;;;2.22;0.70;;;22.50;62.30;;;;;;6242766;23;20004;-87
2022/08/05 17:55:55;;;;;;;3.97;0.80;;;22.40;62.10;;;;;;6190350;23;20008;-86
2022/08/05 17:58:21;;;;;;;4.88;1.05;;;22.30;61.60;;;;;;6218495;23;20038;-85
2022/08/05 18:00:46;;;;;;;1.50;0.70;;;22.20;61.30;;;;;;6170019;23;20008;-86
2022/08/05 18:03:14;;;;;;;2.13;0.65;;;22.10;61.20;;;;;;6217622;23;20303;-85
2022/08/05 18:05:40;;;;;;;2.30;0.60;;;22.00;61.50;;;;;;6243917;23;20012;-85
2022/08/05 18:08:06;;;;;;;1.70;0.80;;;21.90;61.40;;;;;;6218896;23;20430;-85
2022/08/05 18:10:31;;;;;;;3.92;0.70;;;21.90;61.50;;;;;;6189670;23;20011;-85
2022/08/05 18:12:57;;;;;;;1.95;0.63;;;21.80;61.20;;;;;;6189744;23;20011;-85
2022/08/05 18:15:25;;;;;;;3.75;0.93;;;21.80;61.40;;;;;;6241412;23;20003;-86
2022/08/05 18:17:51;;;;;;;1.00;0.50;;;21.70;60.30;;;;;;6190877;23;20008;-86
2022/08/05 18:20:17;;;;;;;1.90;0.60;;;21.60;60.50;;;;;;6216340;23;20330;-87
2022/08/05 18:22:42;;;;;;;1.65;0.50;;;21.60;60.50;;;;;;6246039;23;19996;-84
2022/08/05 18:25:08;;;;;;;2.33;0.63;;;21.50;60.50;;;;;;6193597;23;20012;-84
2022/08/05 18:27:34;;;;;;;2.35;0.60;;;21.40;60.00;;;;;;6220273;23;20028;-84
2022/08/05 18:30:00;;;;;;;1.80;0.70;;;21.30;60.00;;;;;;6219154;23;20005;-83
2022/08/05 18:32:25;;;;;;;3.33;0.63;;;21.20;60.00;;;;;;6168950;23;20011;-83
2022/08/05 23:48:12;;;;;;;;;;;;;;;;;;;;;
